TimeCDT,TemperatureF,Dew PointF,Humidity,Sea Level PressureIn,VisibilityMPH,Wind Direction,Wind SpeedMPH,Gust SpeedMPH,PrecipitationIn,Events,Conditions,WindDirDegrees,DateUTC
12:53 AM,66.9,60.1,79,29.98,10.0,SSW,5.8,-,N/A,,Clear,210,2012-11-03 05:53:00
1:53 AM,62.1,59.0,90,29.98,10.0,SSW,3.5,-,N/A,,Clear,210,2012-11-03 06:53:00
2:53 AM,62.1,59.0,90,29.98,10.0,SW,3.5,-,N/A,,Clear,220,2012-11-03 07:53:00
3:53 AM,59.0,57.9,96,29.99,10.0,Calm,Calm,-,N/A,,Clear,0,2012-11-03 08:53:00
4:53 AM,61.0,57.9,90,30.00,10.0,SSW,4.6,-,N/A,,Clear,210,2012-11-03 09:53:00
5:53 AM,61.0,59.0,93,30.02,10.0,SSW,3.5,-,N/A,,Clear,200,2012-11-03 10:53:00
6:53 AM,60.1,57.9,93,30.03,10.0,SSW,4.6,-,N/A,,Clear,210,2012-11-03 11:53:00
7:53 AM,60.1,57.9,93,30.05,10.0,SW,4.6,-,N/A,,Clear,220,2012-11-03 12:53:00
8:53 AM,64.0,61.0,90,30.06,10.0,SW,9.2,-,N/A,,Clear,230,2012-11-03 13:53:00
9:53 AM,68.0,64.0,87,30.06,10.0,WSW,11.5,-,N/A,,Clear,240,2012-11-03 14:53:00
10:53 AM,72.0,64.0,76,30.06,10.0,WSW,15.0,23.0,N/A,,Clear,250,2012-11-03 15:53:00
11:53 AM,73.9,64.9,73,30.06,10.0,SW,12.7,23.0,N/A,,Clear,230,2012-11-03 16:53:00
12:53 PM,75.9,64.0,67,30.03,10.0,WSW,13.8,-,N/A,,Clear,240,2012-11-03 17:53:00
1:53 PM,79.0,64.0,60,30.00,10.0,WSW,10.4,21.9,N/A,,Clear,250,2012-11-03 18:53:00
2:53 PM,80.1,63.0,56,29.98,10.0,SW,16.1,-,N/A,,Clear,220,2012-11-03 19:53:00
3:53 PM,81.0,63.0,54,29.97,10.0,SW,9.2,-,N/A,,Clear,230,2012-11-03 20:53:00
4:53 PM,80.1,63.0,56,29.97,10.0,WSW,6.9,-,N/A,,Clear,240,2012-11-03 21:53:00
5:53 PM,77.0,63.0,62,29.96,10.0,SSW,8.1,-,N/A,,Clear,210,2012-11-03 22:53:00
6:53 PM,73.0,63.0,71,29.97,10.0,Calm,Calm,-,N/A,,Clear,0,2012-11-03 23:53:00
7:07 PM,69.8,62.6,78,29.97,10.0,South,3.5,-,N/A,Thunderstorm,Clear,190,2012-11-04 00:07:00
7:22 PM,71.6,62.6,73,29.99,10.0,Calm,Calm,-,N/A,,Partly Cloudy,0,2012-11-04 00:22:00
7:38 PM,71.6,62.6,73,29.99,10.0,Calm,Calm,-,N/A,Thunderstorm,Mostly Cloudy,0,2012-11-04 00:38:00
7:53 PM,70.0,62.1,76,30.01,8.0,NNW,10.4,20.7,N/A,Thunderstorm,Thunderstorm,340,2012-11-04 00:53:00
8:35 PM,64.4,62.6,94,30.05,2.5,Variable,3.5,-,0.28,Rain-Thunderstorm,Heavy Thunderstorms and Rain,0,2012-11-04 01:35:00
8:43 PM,64.4,62.6,94,30.05,5.0,West,3.5,-,0.30,Rain-Thunderstorm,Thunderstorms and Rain,280,2012-11-04 01:43:00
8:53 PM,64.0,62.1,93,30.06,5.0,West,3.5,-,0.32,Rain-Thunderstorm,Thunderstorms and Rain,280,2012-11-04 01:53:00
9:53 PM,63.0,57.0,81,30.08,7.0,NNE,13.8,-,0.10,Rain-Thunderstorm,Heavy Thunderstorms and Rain,30,2012-11-04 02:53:00
10:28 PM,60.8,55.4,82,30.09,10.0,NNE,5.8,-,0.01,,Mostly Cloudy,20,2012-11-04 03:28:00
10:53 PM,60.8,55.4,82,30.10,10.0,NNE,6.9,-,N/A,,Mostly Cloudy,20,2012-11-04 03:53:00
11:53 PM,60.1,52.0,75,30.11,10.0,NNE,8.1,-,0.00,Rain,Light Rain,30,2012-11-04 04:53:00